KBAD/BAD METAR and TAF weather

Enter ICAO airport designator
Station Type Date Time Source
KBAD METAR 2018/07/19 06:56 UTC NOAA

KBAD 190656Z AUTO 14004KT 10SM SCT140 26/25 A2988 RMK AO2 SLP119 T02610245


Station Type Date Time Source
KBAD Decoded METAR 2018/07/19 06:56 UTC NOAA

Barksdale Air Force Base, LA, United States (KBAD) 32-30N 093-40W
Jul 19, 2018 - 02:56 AM EDT / 2018.07.19 0656 UTC
Wind: from the SE (140 degrees) at 5 MPH (4 KT):0
Visibility: 10 mile(s):0
Sky conditions: partly cloudy
Temperature: 79.0 F (26.1 C)
Dew Point: 76.1 F (24.5 C)
Relative Humidity: 90%
Pressure (altimeter): 29.88 in. Hg (1011 hPa)
ob: KBAD 190656Z AUTO 14004KT 10SM SCT140 26/25 A2988 RMK AO2 SLP119 T02610245
cycle: 7

Station Type Date Time Source
KBAD TAF 2018/07/19 02:12 UTC NOAA

TAF TAF KBAD 190200Z 1902/2008 18006KT 9999 BKN150 QNH2985INS
BECMG 1914/1915 23009KT 9999 SCT100 QNH2982INS
BECMG 1922/1923 20006KT 9999 SKC QNH2981INS TX36/1922Z TN25/1912Z LAST NO
AMDS AFT 1905 NEXT 1910


Example: see airport list